Terminal Aerodrome Forecast
Issued by NWS Upton, NY

Home | Current Version | Previous Version | Text Only | Print | Product List | Glossary On
Versions: 1 2 3 4 5 6 7 8 9 10 11 12 13 14 15 16 17 18 19 20 21 22 23 24 25 26 27 28
427
FTUS41 KOKX 012240 AAB
TAFEWR
TAF AMD
KEWR 012240Z 0123/0224 07005KT 2SM -RA BR BKN005
     FM020500 04004KT 4SM -DZ BR OVC004
     FM021800 VRB05KT 4SM BR SCT009 OVC015
     FM022100 VRB05KT P6SM SCT015 BKN030=

USA.gov is the U.S. government's official web portal to all federal, state and local government web resources and services.